createdAt,value
2018-08-20T00:00:23.635Z,90.95
2018-08-20T00:01:23.679Z,91.53
2018-08-20T00:02:23.479Z,91.44
2018-08-20T00:03:23.518Z,91.44
2018-08-20T00:04:23.369Z,91.44
2018-08-20T00:05:23.304Z,91.44
2018-08-20T00:06:23.178Z,91.35
2018-08-20T00:07:23.204Z,91.15
2018-08-20T00:08:23.027Z,92.11
2018-08-20T00:15:21.405Z,91.78
2018-08-20T00:16:21.418Z,92.16
2018-08-20T00:17:21.234Z,92.07
2018-08-20T00:18:21.229Z,92.07
2018-08-20T00:19:21.098Z,92.07
2018-08-20T00:20:21.038Z,92.36
2018-08-20T00:21:20.934Z,92.11
2018-08-20T00:22:20.951Z,92.36
2018-08-20T00:23:20.775Z,92.65
2018-08-20T00:24:20.760Z,92.36
2018-08-20T00:25:20.640Z,92.84
2018-08-20T00:28:02.801Z,92.84
2018-08-20T00:29:02.771Z,94.29
2018-08-20T00:30:02.684Z,93.13
2018-08-20T00:31:02.687Z,93.62
2018-08-20T00:32:02.489Z,93.62
2018-08-20T00:33:02.501Z,94.38
2018-08-20T00:34:02.331Z,94.24
2018-08-20T00:35:02.328Z,94.10
2018-08-20T00:36:02.188Z,94.34
2018-08-20T00:37:02.209Z,94.63
2018-08-20T00:38:02.025Z,94.92
2018-08-20T00:39:02.021Z,95.21
2018-08-20T00:40:01.913Z,94.92
2018-08-20T00:41:01.863Z,95.69
2018-08-20T00:42:01.710Z,96.12
2018-08-20T00:43:01.761Z,95.79
2018-08-20T00:44:01.556Z,95.59
2018-08-20T00:45:01.542Z,95.69
2018-08-20T00:46:01.419Z,95.79
2018-08-20T00:47:01.454Z,96.66
2018-08-20T00:48:01.269Z,96.27
2018-08-20T00:49:01.263Z,96.75
2018-08-20T00:50:01.103Z,96.84
2018-08-20T00:51:02.132Z,97.14
2018-08-20T00:52:00.954Z,96.56
2018-08-20T00:53:01.000Z,97.33
2018-08-20T00:54:00.787Z,97.42
2018-08-20T00:55:00.796Z,97.72
2018-08-20T00:56:00.634Z,98.39
2018-08-20T00:57:00.644Z,97.62
2018-08-20T00:58:00.474Z,98.39
2018-08-20T00:59:00.508Z,98.20
2018-08-20T01:00:00.338Z,99.07
2018-08-20T01:01:01.384Z,98.68
2018-08-20T01:02:00.186Z,98.78
2018-08-20T01:03:00.123Z,99.35
2018-08-20T01:04:00.016Z,99.74
2018-08-20T01:06:42.341Z,99.99
2018-08-20T01:07:45.972Z,99.99
2018-08-20T01:08:42.155Z,99.99
2018-08-20T01:11:24.314Z,99.99
2018-08-20T01:12:25.307Z,99.99
2018-08-20T01:13:24.181Z,99.99
2018-08-20T01:15:48.832Z,99.99
2018-08-20T01:18:30.848Z,99.99
2018-08-20T01:19:30.853Z,99.99
2018-08-20T01:20:30.660Z,99.99
2018-08-20T01:21:30.665Z,99.99
2018-08-20T01:22:30.505Z,99.99
2018-08-20T01:23:30.509Z,99.99
2018-08-20T01:24:30.356Z,99.99
2018-08-20T01:25:30.382Z,99.99
2018-08-20T01:26:30.192Z,99.99
2018-08-20T01:27:30.198Z,99.99
2018-08-20T01:28:30.080Z,99.99
2018-08-20T01:29:30.100Z,99.99
2018-08-20T01:30:29.887Z,99.99
2018-08-20T01:31:29.915Z,99.99
2018-08-20T01:32:29.724Z,99.99
2018-08-20T01:33:29.743Z,99.99
2018-08-20T01:34:29.596Z,99.99
2018-08-20T01:35:29.522Z,99.99
2018-08-20T01:36:29.412Z,99.99
2018-08-20T01:37:29.481Z,99.99
2018-08-20T01:39:53.832Z,99.99
2018-08-20T01:40:53.824Z,99.99
2018-08-20T01:41:53.670Z,99.99
2018-08-20T01:44:35.847Z,99.99
2018-08-20T01:45:35.831Z,99.99
2018-08-20T01:46:35.666Z,99.99
2018-08-20T01:50:18.918Z,99.99
2018-08-20T01:51:18.753Z,99.99
2018-08-20T01:52:18.791Z,99.99
2018-08-20T01:53:18.587Z,99.99
2018-08-20T01:54:18.592Z,99.99
2018-08-20T01:55:18.470Z,99.99
2018-08-20T01:56:18.404Z,99.99
2018-08-20T01:57:18.285Z,99.99
2018-08-20T01:58:18.310Z,99.99
2018-08-20T01:59:18.127Z,99.99
2018-08-20T02:00:18.167Z,99.99
2018-08-20T02:01:17.967Z,99.99
2018-08-20T02:02:17.928Z,99.99
2018-08-20T02:03:17.824Z,99.99
2018-08-20T02:04:17.838Z,99.99
2018-08-20T02:05:17.677Z,99.99
2018-08-20T02:06:17.650Z,99.99
2018-08-20T02:07:17.529Z,99.99
2018-08-20T02:08:17.464Z,99.99
2018-08-20T02:09:17.345Z,99.99
2018-08-20T02:10:17.393Z,99.99
2018-08-20T02:11:17.193Z,99.99
2018-08-20T02:12:17.170Z,99.99
2018-08-20T02:13:17.041Z,99.99
2018-08-20T02:14:17.094Z,99.99
2018-08-20T02:15:16.905Z,99.99
2018-08-20T02:16:16.934Z,99.99
2018-08-20T02:17:16.761Z,99.99
2018-08-20T02:18:16.710Z,99.99
2018-08-20T02:19:16.579Z,99.99
2018-08-20T02:20:16.623Z,99.99
2018-08-20T02:21:16.434Z,99.99
2018-08-20T02:22:16.460Z,99.99
2018-08-20T02:23:16.265Z,99.99
2018-08-20T02:24:16.234Z,99.99
2018-08-20T02:25:16.101Z,99.99
2018-08-20T02:26:16.071Z,99.99
2018-08-20T02:27:15.951Z,99.99
2018-08-20T02:28:15.956Z,99.99
2018-08-20T02:29:15.792Z,99.99
2018-08-20T02:30:15.757Z,99.99
2018-08-20T02:31:15.671Z,99.99
2018-08-20T02:32:15.700Z,99.99
2018-08-20T02:33:15.514Z,99.99
2018-08-20T02:34:15.473Z,99.99
2018-08-20T02:35:15.324Z,99.99
2018-08-20T02:37:57.384Z,99.99
2018-08-20T02:40:39.340Z,99.99
2018-08-20T02:41:39.381Z,99.99
2018-08-20T02:42:39.181Z,99.99
2018-08-20T02:43:39.228Z,99.99
2018-08-20T02:44:39.034Z,99.99
2018-08-20T02:45:39.003Z,99.99
2018-08-20T02:46:38.873Z,99.99
2018-08-20T02:47:38.942Z,99.99
2018-08-20T02:48:38.742Z,99.99
2018-08-20T02:49:38.721Z,99.99
2018-08-20T02:50:38.564Z,99.99
2018-08-20T02:51:38.530Z,99.99
2018-08-20T02:52:38.399Z,99.99
2018-08-20T02:53:38.367Z,99.99
2018-08-20T02:54:38.243Z,99.99
2018-08-20T02:55:38.257Z,99.99
2018-08-20T02:56:38.086Z,99.99
2018-08-20T02:57:38.081Z,99.99
2018-08-20T03:00:03.344Z,99.99
2018-08-20T03:01:03.378Z,99.99
2018-08-20T03:02:03.243Z,99.99
2018-08-20T03:04:45.374Z,99.99
2018-08-20T03:05:45.389Z,99.99
2018-08-20T03:06:45.195Z,99.99
2018-08-20T03:07:45.193Z,99.99
2018-08-20T03:08:45.069Z,99.99
2018-08-20T03:09:45.003Z,99.99
2018-08-20T03:10:44.888Z,99.99
2018-08-20T03:11:44.928Z,99.99
2018-08-20T03:12:44.718Z,99.99
2018-08-20T03:13:44.771Z,99.99
2018-08-20T03:14:44.594Z,99.99
2018-08-20T03:15:44.532Z,99.99
2018-08-20T03:16:44.424Z,99.99
2018-08-20T03:17:44.446Z,99.99
2018-08-20T03:18:44.260Z,99.99
2018-08-20T03:19:44.276Z,99.99
2018-08-20T03:20:44.120Z,99.99
2018-08-20T03:21:44.047Z,99.99
2018-08-20T03:22:43.947Z,99.99
2018-08-20T03:23:43.985Z,99.99
2018-08-20T03:24:43.806Z,99.99
2018-08-20T03:25:43.774Z,99.99
2018-08-20T03:26:43.646Z,99.99
2018-08-20T03:27:43.585Z,99.99
2018-08-20T03:28:43.469Z,99.99
2018-08-20T03:29:44.454Z,99.99
2018-08-20T03:30:43.349Z,99.99
2018-08-20T03:31:43.302Z,99.99
2018-08-20T03:32:43.157Z,99.99
2018-08-20T03:33:43.111Z,99.99
2018-08-20T03:34:43.007Z,99.99
2018-08-20T03:35:43.062Z,99.99
2018-08-20T03:36:42.852Z,99.99
2018-08-20T03:37:42.826Z,99.99
2018-08-20T03:38:42.695Z,99.99
2018-08-20T03:39:42.611Z,99.99
2018-08-20T03:40:42.559Z,99.99
2018-08-20T03:41:42.549Z,99.99
2018-08-20T03:42:42.379Z,99.99
2018-08-20T03:43:42.360Z,99.99
2018-08-20T03:44:42.229Z,99.99
2018-08-20T03:45:42.196Z,99.99
2018-08-20T03:46:42.078Z,99.99
2018-08-20T03:47:43.132Z,99.99
2018-08-20T03:48:41.914Z,99.99
2018-08-20T03:51:23.901Z,99.99
2018-08-20T03:52:23.878Z,99.99
2018-08-20T03:53:23.707Z,99.99
2018-08-20T03:54:23.691Z,99.99
2018-08-20T03:55:23.553Z,99.99
2018-08-20T03:56:23.538Z,99.99
2018-08-20T03:57:23.402Z,99.99
2018-08-20T04:00:05.364Z,99.99
2018-08-20T04:01:05.415Z,99.99
2018-08-20T04:02:05.385Z,99.99
2018-08-20T04:03:05.261Z,99.99
2018-08-20T04:04:05.059Z,99.99
2018-08-20T04:06:46.872Z,99.99
2018-08-20T04:07:46.945Z,99.99
2018-08-20T04:08:46.725Z,99.99
2018-08-20T04:09:46.728Z,99.99
2018-08-20T04:10:46.562Z,99.99
2018-08-20T04:11:46.534Z,99.99
2018-08-20T04:12:46.411Z,99.99
2018-08-20T04:13:46.448Z,99.99
2018-08-20T04:14:46.246Z,99.99
2018-08-20T04:15:46.259Z,99.99
2018-08-20T04:16:46.075Z,99.99
2018-08-20T04:17:46.104Z,99.99
2018-08-20T04:18:45.935Z,99.99
2018-08-20T04:19:45.855Z,99.99
2018-08-20T04:20:45.777Z,99.99
2018-08-20T04:21:45.705Z,99.99
2018-08-20T04:22:45.630Z,99.99
2018-08-20T04:23:45.549Z,99.99
2018-08-20T04:24:45.458Z,99.99
2018-08-20T04:25:45.394Z,99.99
2018-08-20T04:26:45.301Z,99.99
2018-08-20T04:27:45.242Z,99.99
2018-08-20T04:35:08.733Z,99.99
2018-08-20T04:37:50.892Z,99.99
2018-08-20T04:38:50.823Z,99.99
2018-08-20T04:39:50.718Z,99.99
2018-08-20T04:42:32.883Z,99.99
2018-08-20T04:44:57.389Z,99.99
2018-08-20T04:45:57.309Z,99.99
2018-08-20T04:46:57.228Z,99.99
2018-08-20T04:47:57.156Z,99.99
2018-08-20T04:48:57.103Z,99.99
2018-08-20T04:49:57.069Z,99.99
2018-08-20T04:50:57.076Z,99.99
2018-08-20T04:51:56.835Z,99.99
2018-08-20T04:52:56.751Z,99.99
2018-08-20T04:53:56.725Z,99.99
2018-08-20T04:54:56.611Z,99.99
2018-08-20T04:55:56.527Z,99.99
2018-08-20T04:56:56.443Z,99.99
2018-08-20T04:57:56.371Z,99.99
2018-08-20T04:58:56.309Z,99.99
2018-08-20T05:01:38.417Z,99.99
2018-08-20T05:04:20.409Z,99.99
2018-08-20T05:07:02.454Z,99.99
2018-08-20T05:08:04.009Z,99.99
2018-08-20T05:09:02.281Z,99.99
2018-08-20T05:10:02.223Z,99.99
2018-08-20T05:11:02.078Z,99.99
2018-08-20T05:12:04.006Z,99.99
2018-08-20T05:13:01.916Z,99.99
2018-08-20T05:15:43.913Z,99.99
2018-08-20T05:18:25.907Z,99.99
2018-08-20T05:21:08.045Z,99.99
2018-08-20T05:22:07.833Z,99.99
2018-08-20T05:23:07.742Z,99.99
2018-08-20T05:46:48.497Z,99.99
2018-08-20T05:47:47.380Z,99.99
2018-08-20T05:48:47.308Z,99.99
2018-08-20T05:49:47.243Z,99.99
2018-08-20T05:50:47.163Z,99.99
2018-08-20T05:51:47.090Z,99.99
2018-08-20T05:54:28.917Z,99.99
2018-08-20T05:57:10.929Z,99.99
2018-08-20T05:58:10.839Z,99.99
2018-08-20T05:59:10.789Z,99.99
2018-08-20T06:00:10.670Z,99.99
2018-08-20T06:01:10.605Z,99.99
2018-08-20T06:02:10.695Z,99.99
2018-08-20T06:03:10.432Z,99.99
2018-08-20T06:04:10.371Z,99.99
2018-08-20T06:05:10.269Z,99.99
2018-08-20T06:07:52.463Z,99.99
2018-08-20T06:08:52.333Z,99.99
2018-08-20T06:09:52.252Z,99.99
2018-08-20T06:10:52.186Z,99.99
2018-08-20T06:11:52.124Z,99.99
2018-08-20T06:12:52.020Z,99.99
2018-08-20T06:13:51.945Z,99.99
2018-08-20T06:25:32.493Z,99.99
2018-08-20T06:26:32.373Z,99.99
2018-08-20T06:27:32.324Z,99.99
2018-08-20T06:28:32.272Z,99.99
2018-08-20T06:29:32.159Z,99.99
2018-08-20T06:30:32.067Z,99.99
2018-08-20T06:31:31.998Z,99.99
2018-08-20T06:32:31.940Z,99.99
2018-08-20T06:33:31.833Z,99.99
2018-08-20T06:34:31.753Z,99.99
2018-08-20T06:37:13.926Z,99.99
2018-08-20T06:38:14.889Z,99.99
2018-08-20T06:39:13.770Z,99.99
2018-08-20T06:40:13.698Z,99.99
2018-08-20T06:41:13.610Z,99.99
2018-08-20T06:43:55.447Z,99.99
2018-08-20T06:44:55.346Z,99.99
2018-08-20T06:45:55.255Z,99.99
2018-08-20T06:46:55.188Z,99.99
2018-08-20T06:47:55.151Z,99.99
2018-08-20T07:05:35.798Z,99.99
2018-08-20T07:08:17.925Z,99.99
2018-08-20T07:10:59.945Z,99.99
2018-08-20T07:13:41.930Z,99.99
2018-08-20T07:14:41.919Z,99.99
2018-08-20T07:15:41.815Z,99.99
2018-08-20T07:16:41.727Z,99.99
2018-08-20T07:17:41.625Z,99.99
2018-08-20T07:18:41.616Z,99.99
2018-08-20T07:19:41.467Z,99.99
2018-08-20T07:20:42.532Z,99.99
2018-08-20T07:21:41.568Z,99.99
2018-08-20T07:22:41.274Z,99.99
2018-08-20T07:23:41.179Z,99.99
2018-08-20T07:24:41.194Z,99.99
2018-08-20T07:25:41.042Z,99.99
2018-08-20T07:28:22.947Z,99.99
2018-08-20T07:31:04.989Z,99.99
2018-08-20T07:32:04.867Z,99.99
2018-08-20T07:33:04.889Z,99.99
2018-08-20T07:34:04.713Z,99.99
2018-08-20T07:35:04.626Z,99.99
2018-08-20T07:37:46.468Z,99.99
2018-08-20T07:38:46.389Z,99.99
2018-08-20T07:39:46.341Z,99.99
2018-08-20T07:40:46.204Z,99.99
2018-08-20T07:41:46.170Z,99.99
2018-08-20T07:42:46.202Z,99.99
2018-08-20T07:43:45.980Z,99.99
2018-08-20T07:44:45.909Z,99.99
2018-08-20T07:45:45.871Z,99.99
2018-08-20T07:46:45.766Z,99.99
2018-08-20T07:47:45.665Z,99.99
2018-08-20T07:50:27.942Z,99.99
2018-08-20T07:51:27.899Z,99.99
2018-08-20T07:52:27.784Z,99.99
2018-08-20T07:53:27.726Z,99.99
2018-08-20T07:54:27.670Z,99.99
2018-08-20T07:57:09.471Z,99.99
2018-08-20T07:58:09.415Z,99.99
2018-08-20T07:59:09.326Z,99.99
2018-08-20T08:00:09.219Z,99.99
2018-08-20T08:01:09.130Z,99.99
2018-08-20T08:02:10.145Z,99.99
2018-08-20T08:03:08.995Z,99.99
2018-08-20T08:05:50.957Z,99.99
2018-08-20T08:06:50.900Z,99.99
2018-08-20T08:07:50.855Z,99.99
2018-08-20T08:08:50.901Z,99.99
2018-08-20T08:09:50.652Z,99.99
2018-08-20T08:10:50.564Z,99.99
2018-08-20T08:11:50.480Z,99.99
2018-08-20T08:12:50.526Z,99.99
2018-08-20T08:13:50.350Z,99.99
2018-08-20T08:14:50.256Z,99.99
2018-08-20T08:15:50.168Z,99.99
2018-08-20T08:16:50.094Z,99.99
2018-08-20T08:17:50.037Z,99.99
2018-08-20T08:18:49.941Z,99.99
2018-08-20T08:19:49.924Z,99.99
2018-08-20T08:20:49.784Z,99.99
2018-08-20T08:21:49.701Z,99.99
2018-08-20T08:22:52.529Z,99.99
2018-08-20T08:23:49.561Z,99.99
2018-08-20T08:26:31.509Z,99.99
2018-08-20T08:27:31.386Z,99.99
2018-08-20T08:28:31.324Z,99.99
2018-08-20T08:29:31.229Z,99.99
2018-08-20T08:30:31.152Z,99.99
2018-08-20T08:31:31.068Z,99.99
2018-08-20T08:32:30.979Z,99.99
2018-08-20T08:33:31.102Z,99.99
2018-08-20T08:34:30.825Z,99.99
2018-08-20T08:37:12.966Z,99.99
2018-08-20T08:39:55.013Z,99.99
2018-08-20T08:40:54.890Z,99.99
2018-08-20T08:41:54.801Z,99.99
2018-08-20T08:44:37.019Z,99.99
2018-08-20T08:45:36.930Z,99.99
2018-08-20T08:46:36.807Z,99.99
2018-08-20T08:47:36.726Z,99.99
2018-08-20T08:48:36.657Z,99.99
2018-08-20T08:49:36.630Z,99.99
2018-08-20T08:50:36.506Z,99.99
2018-08-20T08:53:18.455Z,99.99
2018-08-20T08:54:18.433Z,99.99
2018-08-20T08:55:18.317Z,99.99
2018-08-20T08:56:18.440Z,99.99
2018-08-20T08:57:18.190Z,99.99
2018-08-20T08:58:18.082Z,99.99
2018-08-20T08:59:18.015Z,99.99
2018-08-20T09:01:59.976Z,99.99
2018-08-20T09:04:42.014Z,99.99
2018-08-20T09:05:41.929Z,99.99
2018-08-20T09:06:41.809Z,99.99
2018-08-20T09:07:41.744Z,99.99
2018-08-20T09:08:41.665Z,99.99
2018-08-20T09:09:41.791Z,99.99
2018-08-20T09:10:41.494Z,99.99
2018-08-20T09:11:41.475Z,99.99
2018-08-20T09:12:41.381Z,99.99
2018-08-20T09:13:41.292Z,99.99
2018-08-20T09:14:41.202Z,99.99
2018-08-20T09:15:41.113Z,99.99
2018-08-20T09:16:41.044Z,99.99
2018-08-20T09:17:40.958Z,99.99
2018-08-20T09:18:40.876Z,99.99
2018-08-20T09:19:40.817Z,99.99
2018-08-20T09:20:40.832Z,99.99
2018-08-20T09:21:40.672Z,99.99
2018-08-20T09:22:40.575Z,99.99
2018-08-20T09:23:40.497Z,99.99
2018-08-20T09:24:40.413Z,99.99
2018-08-20T09:25:40.386Z,99.99
2018-08-20T09:26:40.302Z,99.99
2018-08-20T09:27:40.217Z,99.99
2018-08-20T09:28:40.098Z,99.99
2018-08-20T09:29:40.027Z,99.99
2018-08-20T09:30:39.947Z,99.99
2018-08-20T09:31:40.884Z,99.99
2018-08-20T09:32:39.786Z,99.99
2018-08-20T09:33:39.713Z,99.99
2018-08-20T09:34:39.629Z,99.99
2018-08-20T09:35:39.569Z,99.99
2018-08-20T09:36:39.636Z,99.99
2018-08-20T09:37:39.427Z,99.99
2018-08-20T09:38:39.362Z,99.99
2018-08-20T09:39:39.257Z,99.99
2018-08-20T09:40:39.159Z,99.99
2018-08-20T09:41:40.119Z,99.99
2018-08-20T09:42:39.030Z,99.99
2018-08-20T09:43:38.952Z,99.99
2018-08-20T09:44:38.864Z,99.99
2018-08-20T09:47:21.016Z,99.99
2018-08-20T09:48:20.933Z,99.99
2018-08-20T09:49:20.879Z,99.99
2018-08-20T09:52:03.019Z,99.99
2018-08-20T09:53:02.941Z,99.99
2018-08-20T09:54:02.851Z,99.99
2018-08-20T09:55:02.930Z,99.99
2018-08-20T09:56:02.678Z,99.99
2018-08-20T09:58:45.003Z,99.99
2018-08-20T09:59:44.910Z,99.99
2018-08-20T10:00:44.858Z,99.99
2018-08-20T10:01:44.764Z,99.99
2018-08-20T10:02:44.713Z,99.99
2018-08-20T10:03:44.640Z,99.99
2018-08-20T10:04:44.520Z,99.99
2018-08-20T10:07:26.523Z,99.99
2018-08-20T10:08:26.526Z,99.99
2018-08-20T10:09:26.346Z,99.99
2018-08-20T10:10:26.260Z,99.99
2018-08-20T10:11:26.210Z,99.99
2018-08-20T10:14:08.544Z,99.99
2018-08-20T10:16:50.493Z,99.99
2018-08-20T10:17:50.455Z,99.99
2018-08-20T10:18:50.364Z,99.99
2018-08-20T10:21:32.500Z,99.99
2018-08-20T10:22:32.849Z,99.99
2018-08-20T10:23:32.335Z,99.99
2018-08-20T10:24:33.304Z,99.99
2018-08-20T10:25:32.183Z,99.99
2018-08-20T10:28:14.497Z,99.99
2018-08-20T10:29:14.477Z,99.99
2018-08-20T10:30:14.398Z,99.99
2018-08-20T10:31:14.262Z,99.99
2018-08-20T10:32:14.196Z,99.99
2018-08-20T10:33:14.136Z,99.99
2018-08-20T10:34:14.120Z,99.99
2018-08-20T10:35:13.990Z,99.99
2018-08-20T10:36:13.881Z,99.99
2018-08-20T10:37:13.803Z,99.99
2018-08-20T10:38:13.721Z,99.99
2018-08-20T10:39:13.711Z,99.99
2018-08-20T10:40:13.581Z,99.99
2018-08-20T10:41:13.497Z,99.99
2018-08-20T10:42:13.417Z,99.99
2018-08-20T10:43:13.355Z,99.99
2018-08-20T10:44:13.268Z,99.99
2018-08-20T10:45:13.198Z,99.99
2018-08-20T10:46:13.097Z,99.99
2018-08-20T10:47:13.052Z,99.99
2018-08-20T10:48:12.956Z,99.99
2018-08-20T10:50:55.027Z,99.99
2018-08-20T10:51:55.003Z,99.99
2018-08-20T10:52:54.838Z,99.99
2018-08-20T10:55:37.021Z,99.99
2018-08-20T10:56:36.929Z,99.99
2018-08-20T10:57:36.932Z,99.99
2018-08-20T10:58:36.810Z,99.99
2018-08-20T10:59:36.772Z,99.99
2018-08-20T11:02:19.024Z,99.99
2018-08-20T11:03:18.950Z,99.99
2018-08-20T11:04:18.852Z,99.99
2018-08-20T11:05:18.806Z,99.99
2018-08-20T11:06:18.719Z,99.99
2018-08-20T11:09:01.002Z,99.99
2018-08-20T11:10:00.970Z,99.99
2018-08-20T11:11:00.973Z,99.99
2018-08-20T11:13:43.026Z,99.99
2018-08-20T11:14:42.939Z,99.99
2018-08-20T11:15:42.905Z,99.99
2018-08-20T11:16:43.806Z,99.99
2018-08-20T11:17:42.732Z,99.99
2018-08-20T11:18:42.710Z,99.99
2018-08-20T11:19:42.560Z,99.99
2018-08-20T11:20:42.495Z,99.99
2018-08-20T11:21:42.450Z,99.99
2018-08-20T11:22:42.333Z,99.99
2018-08-20T11:23:42.282Z,99.99
2018-08-20T11:24:42.192Z,99.99
2018-08-20T11:25:42.111Z,99.99
2018-08-20T11:26:43.135Z,99.99
2018-08-20T11:27:42.041Z,99.99
2018-08-20T11:28:41.911Z,98.05
2018-08-20T11:29:41.812Z,97.13
2018-08-20T11:30:41.763Z,96.45
2018-08-20T11:31:41.687Z,96.06
2018-08-20T11:32:41.586Z,94.71
2018-08-20T11:33:41.529Z,95.48
2018-08-20T11:36:23.574Z,94.71
2018-08-20T11:37:23.453Z,95.39
2018-08-20T11:38:23.414Z,96.55
2018-08-20T11:39:23.302Z,97.18
2018-08-20T11:40:23.220Z,96.70
2018-08-20T11:43:05.599Z,93.84
2018-08-20T11:44:05.491Z,94.23
2018-08-20T11:45:05.376Z,93.93
2018-08-20T11:46:05.341Z,95.00
2018-08-20T11:47:05.250Z,95.15
2018-08-20T11:48:07.207Z,95.53
2018-08-20T11:49:05.169Z,95.10
2018-08-20T11:50:05.036Z,92.67
2018-08-20T11:51:04.944Z,93.88
2018-08-20T11:52:04.879Z,93.01
2018-08-20T11:53:04.816Z,92.14
2018-08-20T11:54:04.733Z,92.23
2018-08-20T11:55:04.672Z,90.88
2018-08-20T11:57:46.546Z,91.55
2018-08-20T12:00:28.543Z,87.91
2018-08-20T12:03:10.560Z,90.58
2018-08-20T12:04:10.469Z,90.39
2018-08-20T12:05:10.425Z,91.07
2018-08-20T12:06:10.317Z,90.97
2018-08-20T12:07:10.251Z,90.48
2018-08-20T12:08:10.193Z,89.61
2018-08-20T12:09:10.108Z,89.03
2018-08-20T12:10:10.021Z,89.57
2018-08-20T12:11:09.958Z,90.16
2018-08-20T12:12:09.895Z,89.42
2018-08-20T12:13:09.823Z,89.52
2018-08-20T12:14:09.763Z,89.57
2018-08-20T12:15:09.683Z,89.96
2018-08-20T12:17:51.577Z,89.62
2018-08-20T12:18:52.482Z,90.06
2018-08-20T12:19:51.415Z,89.14
2018-08-20T12:20:51.333Z,90.78
2018-08-20T12:21:51.242Z,91.85
2018-08-20T12:22:51.231Z,90.93
2018-08-20T12:23:51.114Z,89.67
2018-08-20T12:24:51.060Z,88.60
2018-08-20T12:25:50.953Z,89.76
2018-08-20T12:26:50.898Z,88.26
2018-08-20T12:27:50.797Z,87.38
2018-08-20T12:30:33.083Z,87.43
2018-08-20T12:33:15.071Z,86.46
2018-08-20T12:34:15.119Z,86.36
2018-08-20T12:35:14.908Z,85.24
2018-08-20T12:36:14.842Z,84.85
2018-08-20T12:37:14.747Z,84.56
2018-08-20T12:39:57.171Z,85.39
2018-08-20T12:40:57.974Z,85.25
2018-08-20T12:41:56.892Z,86.27
2018-08-20T12:42:56.831Z,87.92
2018-08-20T12:43:56.748Z,88.02
2018-08-20T12:46:39.087Z,87.58
2018-08-20T12:47:38.984Z,86.76
2018-08-20T12:48:38.895Z,87.48
2018-08-20T12:49:39.337Z,86.61
2018-08-20T12:50:38.903Z,86.86
2018-08-20T12:51:38.701Z,86.27
2018-08-20T12:52:38.614Z,87.78
2018-08-20T12:53:38.536Z,88.65
2018-08-20T12:54:38.464Z,88.07
2018-08-20T12:55:39.423Z,87.68
2018-08-20T12:56:38.309Z,87.88
2018-08-20T12:57:38.327Z,87.84
2018-08-20T12:58:38.179Z,88.46
2018-08-20T13:01:20.067Z,87.84
2018-08-20T13:04:02.050Z,89.04
2018-08-20T13:05:01.980Z,89.43
2018-08-20T13:06:02.059Z,89.53
2018-08-20T13:08:46.083Z,88.07
2018-08-20T13:09:44.585Z,88.81
2018-08-20T13:10:43.910Z,89.29
2018-08-20T13:11:43.880Z,89.53
2018-08-20T13:12:43.772Z,90.70
2018-08-20T13:13:43.686Z,91.86
2018-08-20T13:14:43.607Z,94.09
2018-08-20T13:15:43.549Z,95.97
2018-08-20T13:16:43.469Z,97.91
2018-08-20T13:17:45.406Z,99.07
2018-08-20T13:18:43.359Z,99.11
2018-08-20T13:19:43.239Z,99.99
2018-08-20T13:20:43.176Z,99.99
2018-08-20T13:21:43.127Z,99.99
2018-08-20T13:22:43.019Z,99.99
2018-08-20T13:25:25.070Z,99.99
2018-08-20T13:26:25.007Z,99.99
2018-08-20T13:27:24.951Z,99.99
2018-08-20T13:28:24.866Z,99.99
2018-08-20T13:29:24.758Z,99.99
2018-08-20T13:30:24.741Z,99.99
2018-08-20T13:31:24.613Z,99.99
2018-08-20T13:32:24.560Z,99.99
2018-08-20T13:33:24.467Z,99.99
2018-08-20T13:34:26.392Z,99.99
2018-08-20T13:35:24.315Z,99.99
2018-08-20T13:36:24.233Z,99.99
2018-08-20T13:37:24.270Z,99.99
2018-08-20T13:40:06.056Z,99.99
2018-08-20T13:41:06.004Z,99.99
2018-08-20T13:42:05.914Z,99.99
2018-08-20T13:43:06.882Z,99.99
2018-08-20T13:44:05.848Z,99.99
2018-08-20T13:45:05.698Z,99.99
2018-08-20T13:46:05.605Z,99.99
2018-08-20T13:48:47.622Z,99.99
2018-08-20T13:49:47.509Z,99.99
2018-08-20T13:50:47.413Z,99.99
2018-08-20T13:51:47.390Z,99.99
2018-08-20T13:52:47.707Z,99.99
2018-08-20T13:53:48.140Z,99.99
2018-08-20T13:54:47.686Z,99.99
2018-08-20T13:55:47.038Z,99.99
2018-08-20T13:56:46.951Z,99.99
2018-08-20T13:59:29.096Z,99.99
2018-08-20T14:02:11.070Z,99.99
2018-08-20T14:03:11.046Z,99.99
2018-08-20T14:04:10.990Z,99.99
2018-08-20T14:05:10.854Z,99.99
2018-08-20T14:06:10.836Z,99.99
2018-08-20T14:08:53.108Z,99.99
2018-08-20T14:09:53.039Z,99.99
2018-08-20T14:10:52.922Z,99.99
2018-08-20T14:13:35.076Z,97.86
2018-08-20T14:14:35.041Z,95.34
2018-08-20T14:15:34.982Z,96.80
2018-08-20T14:16:34.853Z,94.57
2018-08-20T14:17:34.778Z,95.59
2018-08-20T14:18:34.720Z,95.06
2018-08-20T14:19:34.640Z,95.73
2018-08-20T14:20:35.577Z,95.73
2018-08-20T14:21:34.458Z,96.51
2018-08-20T14:22:34.407Z,96.99
2018-08-20T14:23:34.333Z,96.60
2018-08-20T14:24:34.248Z,98.63
2018-08-20T14:25:34.186Z,98.58
2018-08-20T14:26:34.137Z,98.10
2018-08-20T14:27:34.009Z,99.07
2018-08-20T14:28:33.968Z,99.26
2018-08-20T14:29:33.908Z,99.11
2018-08-20T14:30:33.891Z,99.55
2018-08-20T14:31:33.722Z,99.84
2018-08-20T14:32:33.639Z,99.84
2018-08-20T14:33:33.556Z,99.99
2018-08-20T14:36:15.610Z,99.60
2018-08-20T14:38:57.588Z,99.99
2018-08-20T14:39:57.527Z,99.79
2018-08-20T14:40:57.458Z,99.99
2018-08-20T14:41:57.369Z,99.79
2018-08-20T14:42:57.295Z,99.99
2018-08-20T14:43:57.207Z,99.89
2018-08-20T14:44:57.131Z,99.89
2018-08-20T14:45:58.077Z,98.63
2018-08-20T14:46:57.010Z,99.99
2018-08-20T14:49:39.090Z,99.99
2018-08-20T14:50:39.034Z,99.99
2018-08-20T14:51:38.969Z,99.02
2018-08-20T14:52:38.872Z,98.25
2018-08-20T14:53:38.786Z,97.67
2018-08-20T14:54:38.712Z,97.09
2018-08-20T14:55:38.624Z,97.19
2018-08-20T14:56:38.597Z,97.77
2018-08-20T14:57:38.481Z,96.41
2018-08-20T14:58:38.413Z,96.51
2018-08-20T14:59:38.326Z,96.51
2018-08-20T15:00:38.254Z,95.83
2018-08-20T15:01:38.219Z,94.87
2018-08-20T15:02:38.151Z,95.25
2018-08-20T15:03:38.008Z,95.54
2018-08-20T15:04:38.009Z,95.83
2018-08-20T15:05:37.872Z,96.03
2018-08-20T15:06:37.807Z,95.64
2018-08-20T15:07:37.732Z,95.73
2018-08-20T15:08:37.678Z,96.03
2018-08-20T15:09:37.585Z,96.80
2018-08-20T15:10:37.489Z,96.84
2018-08-20T15:11:37.465Z,97.04
2018-08-20T15:12:37.332Z,96.84
2018-08-20T15:13:37.264Z,96.41
2018-08-20T15:14:37.199Z,96.22
2018-08-20T15:15:37.313Z,94.87
2018-08-20T15:16:37.045Z,96.70
2018-08-20T15:17:36.966Z,96.12
2018-08-20T15:18:37.033Z,95.15
2018-08-20T15:19:36.785Z,94.77
2018-08-20T15:20:36.728Z,95.30
2018-08-20T15:21:36.634Z,95.25
2018-08-20T15:22:37.577Z,95.83
2018-08-20T15:23:36.502Z,96.03
2018-08-20T15:24:36.467Z,95.54
2018-08-20T15:25:36.327Z,95.68
2018-08-20T15:26:36.383Z,94.91
2018-08-20T15:27:36.170Z,94.82
2018-08-20T15:28:36.212Z,95.30
2018-08-20T15:29:36.031Z,95.01
2018-08-20T15:30:36.018Z,94.33
2018-08-20T15:31:35.877Z,95.20
2018-08-20T15:32:35.968Z,95.10
2018-08-20T15:33:35.727Z,94.62
2018-08-20T15:34:35.723Z,94.67
2018-08-20T15:35:35.595Z,94.76
2018-08-20T15:36:35.526Z,95.54
2018-08-20T15:37:35.416Z,95.54
2018-08-20T15:38:35.545Z,96.02
2018-08-20T15:39:35.289Z,93.60
2018-08-20T15:40:35.295Z,94.48
2018-08-20T15:41:35.144Z,92.44
2018-08-20T15:42:35.214Z,92.35
2018-08-20T15:43:35.034Z,92.35
2018-08-20T15:44:34.906Z,93.80
2018-08-20T15:45:34.818Z,91.58
2018-08-20T15:46:34.738Z,91.96
2018-08-20T15:47:34.654Z,92.20
2018-08-20T15:48:34.654Z,91.48
2018-08-20T15:49:34.514Z,90.65
2018-08-20T15:50:34.441Z,90.32
2018-08-20T15:51:34.354Z,91.14
2018-08-20T15:52:34.280Z,91.72
2018-08-20T15:53:34.225Z,91.62
2018-08-20T15:54:34.156Z,90.41
2018-08-20T15:55:34.034Z,89.64
2018-08-20T15:56:33.991Z,90.12
2018-08-20T15:57:33.974Z,89.54
2018-08-20T15:58:34.076Z,89.93
2018-08-20T15:59:33.866Z,90.61
2018-08-20T16:00:33.705Z,89.93
2018-08-20T16:01:33.813Z,90.22
2018-08-20T16:02:33.548Z,89.93
2018-08-20T16:03:33.454Z,89.64
2018-08-20T16:04:33.406Z,89.64
2018-08-20T16:05:33.287Z,89.93
2018-08-20T16:06:33.216Z,90.03
2018-08-20T16:07:33.145Z,90.12
2018-08-20T16:08:33.068Z,90.51
2018-08-20T16:09:32.975Z,89.64
2018-08-20T16:10:32.913Z,90.22
2018-08-20T16:11:32.819Z,89.89